createdAt,value
2022-12-19T00:02:25.190Z,25.35
2022-12-19T00:04:53.578Z,23.30
2022-12-19T00:07:22.070Z,23.30
2022-12-19T00:09:50.312Z,24.20
2022-12-19T00:12:19.361Z,22.35
2022-12-19T00:14:48.384Z,25.40
2022-12-19T00:17:16.902Z,19.90
2022-12-19T00:19:46.684Z,25.55
2022-12-19T00:22:15.064Z,23.88
2022-12-19T00:24:43.508Z,23.60
2022-12-19T00:27:11.762Z,23.42
2022-12-19T00:29:40.031Z,23.70
2022-12-19T00:32:08.297Z,23.40
2022-12-19T00:34:36.610Z,24.15
2022-12-19T00:37:06.202Z,21.10
2022-12-19T00:39:34.453Z,22.70
2022-12-19T00:42:02.809Z,16.92
2022-12-19T00:44:31.046Z,24.98
2022-12-19T00:46:59.304Z,23.85
2022-12-19T00:49:27.540Z,26.35
2022-12-19T00:51:57.368Z,20.90
2022-12-19T00:54:27.228Z,22.75
2022-12-19T00:56:55.630Z,23.40
2022-12-19T00:59:26.435Z,23.40
2022-12-19T01:01:55.306Z,23.90
2022-12-19T01:04:28.513Z,24.33
2022-12-19T01:06:59.629Z,24.13
2022-12-19T01:09:33.229Z,24.08
2022-12-19T01:12:19.131Z,25.80
2022-12-19T01:14:49.051Z,23.85
2022-12-19T01:17:17.328Z,22.40
2022-12-19T01:19:45.648Z,23.58
2022-12-19T01:22:14.144Z,24.83
2022-12-19T01:24:44.247Z,26.60
2022-12-19T01:27:12.564Z,21.65
2022-12-19T01:29:51.818Z,24.95
2022-12-19T01:32:21.673Z,20.08
2022-12-19T01:34:50.002Z,21.70
2022-12-19T01:37:18.602Z,22.13
2022-12-19T01:39:48.548Z,23.13
2022-12-19T01:42:22.951Z,21.70
2022-12-19T01:45:35.915Z,21.48
2022-12-19T01:48:12.593Z,16.60
2022-12-19T01:51:01.097Z,20.73
2022-12-19T01:53:35.121Z,23.38
2022-12-19T01:56:08.435Z,22.77
2022-12-19T01:58:38.031Z,21.10
2022-12-19T02:01:06.792Z,22.37
2022-12-19T02:03:38.493Z,22.33
2022-12-19T02:06:08.091Z,24.17
2022-12-19T02:08:36.858Z,22.60
2022-12-19T02:11:06.695Z,23.20
2022-12-19T02:13:35.286Z,23.92
2022-12-19T02:16:10.663Z,23.00
2022-12-19T02:18:42.988Z,22.33
2022-12-19T02:21:19.317Z,24.45
2022-12-19T02:24:28.742Z,24.70
2022-12-19T02:27:39.783Z,22.50
2022-12-19T02:30:12.163Z,22.95
2022-12-19T02:32:49.257Z,24.10
2022-12-19T02:35:25.251Z,23.65
2022-12-19T02:37:59.308Z,24.13
2022-12-19T02:40:31.582Z,24.33
2022-12-19T02:43:02.349Z,24.13
2022-12-19T02:45:34.907Z,23.25
2022-12-19T02:48:08.854Z,24.10
2022-12-19T02:50:41.497Z,22.48
2022-12-19T02:53:11.709Z,23.20
2022-12-19T02:55:48.343Z,25.10
2022-12-19T02:58:33.667Z,24.38
2022-12-19T03:01:09.825Z,23.40
2022-12-19T03:03:46.972Z,25.00
2022-12-19T03:06:20.117Z,23.75
2022-12-19T03:08:52.380Z,24.80
2022-12-19T03:11:23.598Z,25.73
2022-12-19T03:13:55.746Z,25.05
2022-12-19T03:16:24.576Z,24.98
2022-12-19T03:18:55.112Z,25.33
2022-12-19T03:23:55.502Z,23.25
2022-12-19T03:26:27.396Z,23.50
2022-12-19T03:28:58.213Z,23.58
2022-12-19T03:31:29.826Z,24.17
2022-12-19T03:34:02.432Z,24.52
2022-12-19T03:36:34.110Z,25.20
2022-12-19T03:39:04.457Z,24.23
2022-12-19T03:41:50.209Z,24.73
2022-12-19T03:44:19.232Z,26.30
2022-12-19T03:46:52.886Z,25.25
2022-12-19T03:49:22.518Z,24.73
2022-12-19T03:51:59.322Z,25.97
2022-12-19T03:54:30.216Z,24.90
2022-12-19T03:57:02.394Z,24.77
2022-12-19T03:59:34.494Z,24.88
2022-12-19T04:02:03.134Z,27.98
2022-12-19T04:04:36.862Z,24.77
2022-12-19T04:07:05.374Z,26.38
2022-12-19T04:09:34.780Z,26.27
2022-12-19T04:12:06.040Z,23.80
2022-12-19T04:14:36.075Z,20.38
2022-12-19T04:17:11.229Z,27.15
2022-12-19T04:19:44.907Z,26.70
2022-12-19T04:22:16.276Z,24.02
2022-12-19T04:24:45.625Z,24.63
2022-12-19T04:27:14.805Z,27.10
2022-12-19T04:29:43.923Z,25.17
2022-12-19T04:32:12.690Z,26.02
2022-12-19T04:34:43.138Z,26.23
2022-12-19T04:39:39.952Z,24.38
2022-12-19T04:42:08.370Z,25.42
2022-12-19T04:44:36.636Z,24.85
2022-12-19T04:47:05.061Z,23.23
2022-12-19T04:49:33.389Z,25.23
2022-12-19T04:52:03.155Z,25.02
2022-12-19T04:54:31.482Z,23.92
2022-12-19T04:56:59.725Z,24.20
2022-12-19T04:59:28.023Z,26.85
2022-12-19T05:01:56.565Z,24.55
2022-12-19T05:04:25.466Z,23.67
2022-12-19T05:06:53.755Z,24.23
2022-12-19T05:09:23.524Z,24.58
2022-12-19T05:11:52.894Z,28.00
2022-12-19T05:14:21.185Z,26.50
2022-12-19T05:16:49.446Z,24.92
2022-12-19T05:19:17.806Z,24.33
2022-12-19T05:21:46.132Z,25.05
2022-12-19T05:24:14.410Z,25.08
2022-12-19T05:26:44.053Z,23.95
2022-12-19T05:29:12.406Z,23.80
2022-12-19T05:31:40.747Z,23.95
2022-12-19T05:34:09.163Z,23.70
2022-12-19T05:36:37.455Z,24.67
2022-12-19T05:39:05.746Z,24.10
2022-12-19T05:41:33.932Z,26.05
2022-12-19T05:44:03.616Z,24.98
2022-12-19T05:46:31.901Z,25.85
2022-12-19T05:49:00.375Z,24.67
2022-12-19T05:51:28.956Z,22.38
2022-12-19T05:53:57.182Z,24.77
2022-12-19T05:56:25.418Z,24.02
2022-12-19T05:58:54.546Z,25.63
2022-12-19T06:01:25.976Z,24.30
2022-12-19T06:03:55.514Z,24.73
2022-12-19T06:06:25.574Z,26.33
2022-12-19T06:08:55.101Z,21.90
2022-12-19T06:11:23.722Z,23.63
2022-12-19T06:13:52.125Z,23.67
2022-12-19T06:16:21.943Z,23.00
2022-12-19T06:18:51.759Z,26.73
2022-12-19T06:21:21.566Z,25.42
2022-12-19T06:23:50.178Z,26.77
2022-12-19T06:26:20.535Z,26.35
2022-12-19T06:31:17.811Z,24.33
2022-12-19T06:33:46.229Z,24.35
2022-12-19T06:36:18.851Z,24.67
2022-12-19T06:38:47.414Z,25.85
2022-12-19T06:41:33.695Z,25.67
2022-12-19T06:44:02.627Z,24.98
2022-12-19T06:46:31.036Z,25.25
2022-12-19T06:48:59.455Z,24.77
2022-12-19T06:51:29.249Z,26.20
2022-12-19T06:53:57.625Z,25.27
2022-12-19T06:56:26.181Z,24.70
2022-12-19T06:58:54.865Z,25.48
2022-12-19T07:01:44.665Z,26.70
2022-12-19T07:04:17.365Z,25.33
2022-12-19T07:06:49.240Z,24.88
2022-12-19T07:09:18.205Z,26.63
2022-12-19T07:11:46.500Z,26.25
2022-12-19T07:14:14.973Z,26.45
2022-12-19T07:16:43.492Z,25.13
2022-12-19T07:19:11.847Z,25.73
2022-12-19T07:21:40.429Z,26.25
2022-12-19T07:24:11.144Z,24.25
2022-12-19T07:26:39.585Z,26.38
2022-12-19T07:29:08.363Z,24.45
2022-12-19T07:31:36.904Z,24.65
2022-12-19T07:34:05.233Z,24.83
2022-12-19T07:36:33.527Z,25.77
2022-12-19T07:39:02.450Z,24.92
2022-12-19T07:41:32.342Z,24.92
2022-12-19T07:44:01.445Z,28.17
2022-12-19T07:46:30.641Z,22.67
2022-12-19T07:49:01.900Z,25.23
2022-12-19T07:51:30.097Z,25.63
2022-12-19T07:53:59.376Z,25.05
2022-12-19T07:56:28.280Z,24.27
2022-12-19T07:58:58.138Z,24.50
2022-12-19T08:01:28.259Z,24.67
2022-12-19T08:03:58.242Z,24.13
2022-12-19T08:06:27.987Z,22.08
2022-12-19T08:08:57.078Z,24.65
2022-12-19T08:11:27.734Z,23.35
2022-12-19T08:13:56.372Z,21.67
2022-12-19T08:16:27.815Z,22.83
2022-12-19T08:18:56.656Z,22.55
2022-12-19T08:21:25.135Z,24.10
2022-12-19T08:23:54.219Z,21.92
2022-12-19T08:26:26.001Z,22.70
2022-12-19T08:28:54.568Z,17.35
2022-12-19T08:31:24.974Z,21.25
2022-12-19T08:33:56.882Z,20.73
2022-12-19T08:36:25.496Z,20.85
2022-12-19T08:38:54.495Z,22.10
2022-12-19T08:41:23.324Z,20.33
2022-12-19T08:43:53.294Z,19.65
2022-12-19T08:46:21.992Z,21.17
2022-12-19T08:48:50.947Z,20.92
2022-12-19T08:51:21.059Z,21.63
2022-12-19T08:53:49.294Z,20.83
2022-12-19T08:56:19.813Z,20.73
2022-12-19T08:58:48.301Z,21.40
2022-12-19T09:01:19.295Z,21.25
2022-12-19T09:04:26.789Z,20.23
2022-12-19T09:06:38.428Z,22.27
2022-12-19T09:09:07.090Z,22.27
2022-12-19T09:11:46.555Z,20.92
2022-12-19T09:14:21.215Z,20.48
2022-12-19T09:16:49.942Z,22.30
2022-12-19T09:19:18.264Z,22.40
2022-12-19T09:21:47.841Z,23.00
2022-12-19T09:24:16.146Z,20.83
2022-12-19T09:26:45.658Z,21.83
2022-12-19T09:29:20.610Z,21.90
2022-12-19T09:31:53.856Z,21.70
2022-12-19T09:34:37.833Z,19.40
2022-12-19T09:37:15.419Z,24.67
2022-12-19T09:39:45.502Z,21.73
2022-12-19T09:42:26.613Z,23.60
2022-12-19T09:45:09.752Z,22.42
2022-12-19T09:47:44.153Z,22.70
2022-12-19T09:50:25.131Z,22.77
2022-12-19T09:52:59.091Z,21.92
2022-12-19T09:55:30.080Z,22.80
2022-12-19T09:58:01.333Z,21.13
2022-12-19T10:00:36.023Z,22.25
2022-12-19T10:03:08.719Z,23.80
2022-12-19T10:06:44.031Z,22.08
2022-12-19T10:08:34.140Z,22.15
2022-12-19T10:12:46.511Z,22.30
2022-12-19T10:14:08.531Z,21.75
2022-12-19T10:17:01.765Z,22.95
2022-12-19T10:19:39.491Z,22.23
2022-12-19T10:22:19.141Z,23.27
2022-12-19T10:25:09.127Z,22.52
2022-12-19T10:27:58.715Z,22.70
2022-12-19T10:30:31.731Z,22.85
2022-12-19T10:33:07.091Z,20.92
2022-12-19T10:35:44.253Z,22.88
2022-12-19T10:38:22.523Z,22.13
2022-12-19T10:40:55.230Z,22.40
2022-12-19T10:43:40.822Z,22.48
2022-12-19T10:46:15.364Z,22.70
2022-12-19T10:48:43.808Z,21.73
2022-12-19T10:51:13.910Z,22.35
2022-12-19T10:53:42.312Z,23.80
2022-12-19T10:56:23.831Z,24.25
2022-12-19T10:58:57.403Z,23.17
2022-12-19T11:01:27.871Z,23.92
2022-12-19T11:04:28.849Z,24.40
2022-12-19T11:07:18.500Z,22.88
2022-12-19T11:10:12.685Z,22.60
2022-12-19T11:16:56.646Z,23.08
2022-12-19T11:19:23.920Z,21.73
2022-12-19T11:26:50.516Z,23.38
2022-12-19T11:29:34.916Z,24.42
2022-12-19T11:29:38.360Z,21.20
2022-12-19T11:30:35.456Z,22.88
2022-12-19T11:32:42.058Z,23.70
2022-12-19T11:35:19.342Z,24.15
2022-12-19T11:37:55.392Z,23.83
2022-12-19T11:40:32.464Z,23.45
2022-12-19T11:43:42.494Z,22.33
2022-12-19T11:46:00.234Z,23.08
2022-12-19T11:48:36.085Z,22.75
2022-12-19T11:51:11.200Z,23.15
2022-12-19T11:53:46.871Z,24.10
2022-12-19T11:56:17.800Z,22.40
2022-12-19T11:58:50.839Z,22.75
2022-12-19T12:01:27.161Z,22.98
2022-12-19T12:04:13.867Z,21.98
2022-12-19T12:06:47.503Z,23.13
2022-12-19T12:12:05.352Z,22.27
2022-12-19T12:19:48.626Z,22.58
2022-12-19T12:27:46.179Z,25.58
2022-12-19T12:31:19.170Z,22.63
2022-12-19T12:31:26.820Z,24.13
2022-12-19T12:31:31.950Z,23.83
2022-12-19T12:31:38.990Z,23.83
2022-12-19T12:35:40.781Z,22.75
2022-12-19T12:39:06.545Z,25.27
2022-12-19T12:41:59.905Z,23.90
2022-12-19T12:44:32.640Z,23.17
2022-12-19T12:47:06.981Z,22.20
2022-12-19T12:49:41.563Z,23.27
2022-12-19T12:52:15.879Z,22.48
2022-12-19T12:54:47.767Z,21.85
2022-12-19T12:57:20.835Z,22.70
2022-12-19T13:00:19.537Z,22.40
2022-12-19T13:02:51.217Z,22.55
2022-12-19T13:05:42.550Z,21.60
2022-12-19T13:08:35.877Z,22.42
2022-12-19T13:11:06.493Z,22.33
2022-12-19T13:16:53.643Z,23.30
2022-12-19T13:19:28.523Z,23.38
2022-12-19T13:22:21.426Z,22.88
2022-12-19T13:24:51.242Z,23.13
2022-12-19T13:27:41.553Z,22.27
2022-12-19T13:30:19.065Z,23.40
2022-12-19T13:33:11.107Z,24.75
2022-12-19T13:38:58.027Z,24.90
2022-12-19T13:39:50.749Z,22.20
2022-12-19T13:41:45.640Z,22.92
2022-12-19T13:44:14.083Z,23.45
2022-12-19T13:46:43.525Z,22.40
2022-12-19T13:49:16.531Z,22.88
2022-12-19T13:51:50.184Z,24.80
2022-12-19T13:54:26.918Z,23.05
2022-12-19T13:56:56.383Z,21.35
2022-12-19T13:59:26.995Z,23.00
2022-12-19T14:04:30.168Z,22.35
2022-12-19T14:07:01.897Z,22.23
2022-12-19T14:11:33.125Z,21.58
2022-12-19T14:13:59.285Z,22.13
2022-12-19T14:15:30.390Z,21.90
2022-12-19T14:18:29.969Z,23.63
2022-12-19T14:22:07.037Z,23.65
2022-12-19T14:23:44.215Z,24.13
2022-12-19T14:28:20.290Z,23.65
2022-12-19T14:29:06.578Z,23.70
2022-12-19T14:31:37.403Z,23.80
2022-12-19T14:36:05.218Z,23.13
2022-12-19T14:36:58.675Z,23.42
2022-12-19T14:39:31.810Z,25.02
2022-12-19T14:42:31.624Z,24.23
2022-12-19T14:52:25.320Z,24.70
2022-12-19T14:52:51.968Z,22.67
2022-12-19T14:54:11.326Z,24.30
2022-12-19T14:57:50.665Z,25.50
2022-12-19T15:01:07.154Z,25.23
2022-12-19T15:03:20.712Z,24.80
2022-12-19T15:05:49.286Z,24.98
2022-12-19T15:08:44.500Z,25.63
2022-12-19T15:11:53.630Z,24.35
2022-12-19T15:14:56.620Z,23.67
2022-12-19T15:17:24.032Z,23.95
2022-12-19T15:19:52.650Z,29.73
2022-12-19T15:22:20.900Z,26.27
2022-12-19T15:24:49.179Z,25.77
2022-12-19T15:27:18.958Z,26.85
2022-12-19T15:29:47.231Z,27.52
2022-12-19T15:32:16.518Z,26.75
2022-12-19T15:34:51.008Z,28.15
2022-12-19T15:37:20.505Z,35.70
2022-12-19T15:39:48.769Z,27.55
2022-12-19T15:42:20.421Z,24.92
2022-12-19T15:44:49.613Z,26.05
2022-12-19T15:47:19.816Z,25.05
2022-12-19T15:49:48.312Z,26.40
2022-12-19T15:52:17.789Z,26.25
2022-12-19T15:54:49.124Z,25.30
2022-12-19T15:57:25.429Z,27.50
2022-12-19T15:59:54.017Z,26.90
2022-12-19T16:02:42.705Z,28.10
2022-12-19T16:05:16.359Z,25.95
2022-12-19T16:07:44.823Z,27.08
2022-12-19T16:10:14.289Z,26.02
2022-12-19T16:12:45.296Z,26.30
2022-12-19T16:15:26.378Z,27.33
2022-12-19T16:17:54.891Z,25.83
2022-12-19T16:20:25.313Z,27.40
2022-12-19T16:22:55.032Z,26.70
2022-12-19T16:25:26.021Z,27.70
2022-12-19T16:27:57.560Z,29.25
2022-12-19T16:30:30.351Z,29.17
2022-12-19T16:32:58.766Z,29.30
2022-12-19T16:36:02.398Z,28.80
2022-12-19T16:38:17.265Z,30.63
2022-12-19T16:40:45.999Z,27.85
2022-12-19T16:43:17.553Z,29.70
2022-12-19T16:45:46.182Z,29.17
2022-12-19T16:48:19.854Z,29.05
2022-12-19T16:50:48.378Z,32.85
2022-12-19T16:53:17.253Z,29.08
2022-12-19T16:55:46.749Z,28.00
2022-12-19T16:58:20.924Z,26.85
2022-12-19T17:00:49.970Z,26.02
2022-12-19T17:03:28.683Z,28.00
2022-12-19T17:05:57.075Z,29.38
2022-12-19T17:08:25.370Z,30.50
2022-12-19T17:10:54.444Z,30.17
2022-12-19T17:13:25.047Z,27.45
2022-12-19T17:15:56.974Z,27.85
2022-12-19T17:18:28.833Z,31.38
2022-12-19T17:20:57.141Z,42.72
2022-12-19T17:23:26.453Z,28.77
2022-12-19T17:25:55.464Z,26.23
2022-12-19T17:28:25.144Z,26.42
2022-12-19T17:30:55.491Z,29.17
2022-12-19T17:33:25.365Z,28.92
2022-12-19T17:35:53.649Z,26.55
2022-12-19T17:38:21.937Z,26.15
2022-12-19T17:40:50.193Z,27.15
2022-12-19T17:43:18.778Z,31.88
2022-12-19T17:45:48.445Z,34.13
2022-12-19T17:48:22.786Z,37.00
2022-12-19T17:50:51.297Z,37.00
2022-12-19T17:53:19.666Z,47.20
2022-12-19T17:55:47.930Z,48.88
2022-12-19T17:58:16.174Z,45.35
2022-12-19T18:00:44.748Z,31.15
2022-12-19T18:03:19.526Z,26.70
2022-12-19T18:05:48.659Z,29.63
2022-12-19T18:08:27.728Z,26.42
2022-12-19T18:10:57.580Z,29.15
2022-12-19T18:13:26.176Z,31.27
2022-12-19T18:15:57.861Z,29.23
2022-12-19T18:18:31.404Z,30.38
2022-12-19T18:21:00.830Z,30.23
2022-12-19T18:23:30.416Z,28.77
2022-12-19T18:26:01.767Z,41.73
2022-12-19T18:28:31.393Z,35.42
2022-12-19T18:31:01.371Z,29.75
2022-12-19T18:33:38.042Z,30.05
2022-12-19T18:36:07.466Z,30.65
2022-12-19T18:38:36.098Z,29.13
2022-12-19T18:41:04.427Z,29.30
2022-12-19T18:43:33.551Z,27.70
2022-12-19T18:46:01.942Z,25.98
2022-12-19T18:48:33.359Z,28.00
2022-12-19T18:51:02.070Z,32.45
2022-12-19T18:53:35.297Z,34.63
2022-12-19T18:56:05.433Z,30.35
2022-12-19T18:58:33.789Z,30.83
2022-12-19T19:01:02.902Z,26.77
2022-12-19T19:03:34.256Z,25.83
2022-12-19T19:06:03.691Z,27.58
2022-12-19T19:08:33.651Z,27.13
2022-12-19T19:11:02.153Z,27.27
2022-12-19T19:13:31.437Z,27.25
2022-12-19T19:16:01.819Z,28.63
2022-12-19T19:18:35.286Z,28.70
2022-12-19T19:21:04.683Z,28.20
2022-12-19T19:23:35.366Z,28.30
2022-12-19T19:26:03.681Z,26.33
2022-12-19T19:28:32.031Z,29.38
2022-12-19T19:31:01.171Z,21.48
2022-12-19T19:33:35.487Z,26.42
2022-12-19T19:36:11.674Z,27.58
2022-12-19T19:38:41.540Z,25.30
2022-12-19T19:41:09.777Z,25.27
2022-12-19T19:43:38.040Z,24.75
2022-12-19T19:46:06.704Z,26.20
2022-12-19T19:48:36.692Z,33.55
2022-12-19T19:51:05.092Z,24.05
2022-12-19T19:53:33.720Z,23.17
2022-12-19T19:56:02.311Z,24.98
2022-12-19T19:58:30.954Z,28.33
2022-12-19T20:00:59.355Z,34.30
2022-12-19T20:03:27.997Z,33.95
2022-12-19T20:06:01.614Z,30.63
2022-12-19T20:08:38.618Z,31.38
2022-12-19T20:11:07.458Z,29.20
2022-12-19T20:13:35.838Z,29.58
2022-12-19T20:16:04.626Z,28.60
2022-12-19T20:18:33.011Z,34.22
2022-12-19T20:21:05.583Z,29.23
2022-12-19T20:23:37.546Z,28.58
2022-12-19T20:26:06.760Z,29.65
2022-12-19T20:28:35.068Z,30.27
2022-12-19T20:31:03.506Z,31.75
2022-12-19T20:33:32.096Z,31.83
2022-12-19T20:36:08.124Z,29.08
2022-12-19T20:38:36.499Z,28.92
2022-12-19T20:41:04.989Z,28.65
2022-12-19T20:43:33.828Z,26.65
2022-12-19T20:46:02.415Z,27.70
2022-12-19T20:48:30.795Z,27.77
2022-12-19T20:50:59.605Z,29.45
2022-12-19T20:53:29.308Z,27.10
2022-12-19T20:55:58.890Z,28.25
2022-12-19T20:58:28.237Z,26.77
2022-12-19T21:00:56.606Z,27.33
2022-12-19T21:03:28.297Z,27.20
2022-12-19T21:05:58.001Z,26.50
2022-12-19T21:08:27.187Z,29.08
2022-12-19T21:10:56.889Z,30.23
2022-12-19T21:13:25.306Z,27.67
2022-12-19T21:15:54.500Z,26.95
2022-12-19T21:18:23.131Z,27.10
2022-12-19T21:20:54.458Z,26.55
2022-12-19T21:23:23.061Z,27.85
2022-12-19T21:25:51.389Z,26.30
2022-12-19T21:28:21.393Z,27.00
2022-12-19T21:30:56.631Z,27.25
2022-12-19T21:33:24.911Z,29.02
2022-12-19T21:35:53.192Z,28.85
2022-12-19T21:38:21.625Z,27.52
2022-12-19T21:40:49.947Z,28.52
2022-12-19T21:43:18.163Z,28.05
2022-12-19T21:45:47.923Z,28.90
2022-12-19T21:48:16.196Z,26.80
2022-12-19T21:50:44.462Z,25.70
2022-12-19T21:53:12.692Z,25.95
2022-12-19T21:55:41.047Z,25.80
2022-12-19T21:58:09.285Z,32.53
2022-12-19T22:00:37.568Z,29.88
2022-12-19T22:03:15.514Z,28.05
2022-12-19T22:05:43.977Z,27.65
2022-12-19T22:08:12.258Z,28.30
2022-12-19T22:10:40.683Z,26.95
2022-12-19T22:13:09.122Z,28.33
2022-12-19T22:15:37.478Z,27.05
2022-12-19T22:18:07.277Z,26.30
2022-12-19T22:20:35.636Z,26.30
2022-12-19T22:23:09.701Z,25.38
2022-12-19T22:25:41.289Z,25.63
2022-12-19T22:28:09.605Z,26.83
2022-12-19T22:30:37.989Z,25.65
2022-12-19T22:33:07.594Z,25.20
2022-12-19T22:35:35.934Z,24.20
2022-12-19T22:38:04.213Z,23.30
2022-12-19T22:40:33.164Z,24.52
2022-12-19T22:43:01.414Z,25.45
2022-12-19T22:45:31.292Z,24.15
2022-12-19T22:47:59.713Z,25.23
2022-12-19T22:50:29.402Z,23.90
2022-12-19T22:52:57.668Z,23.93
2022-12-19T22:55:25.956Z,24.60
2022-12-19T22:57:54.207Z,22.92
2022-12-19T23:00:23.292Z,23.45
2022-12-19T23:02:51.663Z,24.27
2022-12-19T23:05:20.239Z,24.83
2022-12-19T23:07:49.862Z,23.58
2022-12-19T23:10:18.441Z,24.07
2022-12-19T23:12:46.691Z,23.70
2022-12-19T23:15:14.999Z,23.73
2022-12-19T23:17:43.271Z,23.40
2022-12-19T23:20:12.220Z,24.02
2022-12-19T23:22:40.508Z,23.23
2022-12-19T23:25:11.767Z,23.85
2022-12-19T23:27:41.505Z,23.70
2022-12-19T23:30:11.302Z,24.25
2022-12-19T23:32:41.761Z,25.45
2022-12-19T23:35:13.757Z,24.60
2022-12-19T23:37:42.062Z,24.25
2022-12-19T23:40:12.534Z,24.17
2022-12-19T23:42:40.899Z,24.90
2022-12-19T23:45:10.220Z,25.10
2022-12-19T23:47:38.516Z,23.80
2022-12-19T23:50:08.209Z,25.20
2022-12-19T23:52:36.435Z,24.63
2022-12-19T23:55:05.337Z,25.27
2022-12-19T23:57:34.975Z,23.98
